sensor_id;sensor_type;location;lat;lon;timestamp;P1;durP1;ratioP1;P2;durP2;ratioP2
71572;SDS011;59408;51.032;9.410;2024-03-23T00:56:08;23.17;;;9.75;;
71572;SDS011;59408;51.032;9.410;2024-03-23T00:58:34;21.52;;;9.77;;
71572;SDS011;59408;51.032;9.410;2024-03-23T01:00:59;17.70;;;8.43;;
71572;SDS011;59408;51.032;9.410;2024-03-23T01:03:25;18.57;;;8.10;;
71572;SDS011;59408;51.032;9.410;2024-03-23T01:05:50;17.70;;;8.05;;
71572;SDS011;59408;51.032;9.410;2024-03-23T01:08:16;15.60;;;6.77;;
71572;SDS011;59408;51.032;9.410;2024-03-23T01:10:43;18.63;;;7.50;;
71572;SDS011;59408;51.032;9.410;2024-03-23T01:13:18;17.75;;;7.78;;
71572;SDS011;59408;51.032;9.410;2024-03-23T01:15:47;16.20;;;7.37;;
71572;SDS011;59408;51.032;9.410;2024-03-23T01:18:13;18.58;;;8.15;;
71572;SDS011;59408;51.032;9.410;2024-03-23T01:20:39;17.57;;;7.60;;
71572;SDS011;59408;51.032;9.410;2024-03-23T01:23:04;17.35;;;7.57;;
71572;SDS011;59408;51.032;9.410;2024-03-23T01:25:30;13.40;;;6.30;;
71572;SDS011;59408;51.032;9.410;2024-03-23T01:27:56;10.77;;;5.10;;
71572;SDS011;59408;51.032;9.410;2024-03-23T01:30:22;10.55;;;4.65;;
71572;SDS011;59408;51.032;9.410;2024-03-23T01:32:48;11.13;;;4.63;;
71572;SDS011;59408;51.032;9.410;2024-03-23T01:35:13;10.23;;;4.57;;
71572;SDS011;59408;51.032;9.410;2024-03-23T01:37:39;9.83;;;4.27;;
71572;SDS011;59408;51.032;9.410;2024-03-23T01:40:05;10.90;;;4.43;;
71572;SDS011;59408;51.032;9.410;2024-03-23T01:42:31;9.90;;;4.10;;
71572;SDS011;59408;51.032;9.410;2024-03-23T01:44:58;10.52;;;4.22;;
71572;SDS011;59408;51.032;9.410;2024-03-23T01:47:23;9.25;;;3.80;;
71572;SDS011;59408;51.032;9.410;2024-03-23T01:49:49;8.53;;;3.70;;
71572;SDS011;59408;51.032;9.410;2024-03-23T01:52:15;8.43;;;3.40;;
71572;SDS011;59408;51.032;9.410;2024-03-23T01:54:40;8.55;;;3.58;;
71572;SDS011;59408;51.032;9.410;2024-03-23T01:57:06;10.70;;;3.67;;
71572;SDS011;59408;51.032;9.410;2024-03-23T01:59:31;8.82;;;4.05;;
71572;SDS011;59408;51.032;9.410;2024-03-23T02:01:59;8.73;;;3.57;;
71572;SDS011;59408;51.032;9.410;2024-03-23T02:04:24;9.17;;;3.27;;
71572;SDS011;59408;51.032;9.410;2024-03-23T02:06:50;7.97;;;3.40;;
71572;SDS011;59408;51.032;9.410;2024-03-23T02:09:15;9.10;;;3.10;;
71572;SDS011;59408;51.032;9.410;2024-03-23T02:11:41;9.40;;;3.43;;
71572;SDS011;59408;51.032;9.410;2024-03-23T02:14:06;10.23;;;3.70;;
71572;SDS011;59408;51.032;9.410;2024-03-23T02:16:32;9.83;;;4.03;;
71572;SDS011;59408;51.032;9.410;2024-03-23T02:18:59;9.90;;;4.07;;
71572;SDS011;59408;51.032;9.410;2024-03-23T02:21:24;8.57;;;3.87;;
71572;SDS011;59408;51.032;9.410;2024-03-23T02:23:51;9.90;;;3.90;;
71572;SDS011;59408;51.032;9.410;2024-03-23T02:26:16;10.50;;;3.77;;
71572;SDS011;59408;51.032;9.410;2024-03-23T02:28:42;10.15;;;3.70;;
71572;SDS011;59408;51.032;9.410;2024-03-23T02:31:08;10.77;;;4.00;;
71572;SDS011;59408;51.032;9.410;2024-03-23T02:33:33;10.07;;;4.10;;
71572;SDS011;59408;51.032;9.410;2024-03-23T02:35:59;9.20;;;3.70;;
71572;SDS011;59408;51.032;9.410;2024-03-23T02:38:24;11.30;;;3.67;;
71572;SDS011;59408;51.032;9.410;2024-03-23T02:40:51;9.93;;;3.72;;
71572;SDS011;59408;51.032;9.410;2024-03-23T02:43:17;9.60;;;3.40;;
71572;SDS011;59408;51.032;9.410;2024-03-23T02:45:42;12.70;;;4.10;;
71572;SDS011;59408;51.032;9.410;2024-03-23T02:48:08;13.80;;;3.93;;
71572;SDS011;59408;51.032;9.410;2024-03-23T02:50:33;10.83;;;4.33;;
71572;SDS011;59408;51.032;9.410;2024-03-23T02:52:59;10.52;;;3.30;;
71572;SDS011;59408;51.032;9.410;2024-03-23T02:55:27;12.17;;;4.40;;
71572;SDS011;59408;51.032;9.410;2024-03-23T02:57:54;11.73;;;3.20;;
71572;SDS011;59408;51.032;9.410;2024-03-23T03:00:19;11.18;;;3.25;;
71572;SDS011;59408;51.032;9.410;2024-03-23T03:02:45;10.33;;;3.40;;
71572;SDS011;59408;51.032;9.410;2024-03-23T03:05:10;10.57;;;3.30;;
71572;SDS011;59408;51.032;9.410;2024-03-23T03:07:36;9.70;;;3.00;;
71572;SDS011;59408;51.032;9.410;2024-03-23T03:10:01;9.57;;;3.03;;
71572;SDS011;59408;51.032;9.410;2024-03-23T03:12:27;13.00;;;3.10;;
71572;SDS011;59408;51.032;9.410;2024-03-23T03:14:54;11.20;;;2.67;;
71572;SDS011;59408;51.032;9.410;2024-03-23T03:17:19;12.93;;;3.00;;
71572;SDS011;59408;51.032;9.410;2024-03-23T03:19:45;9.13;;;2.90;;
71572;SDS011;59408;51.032;9.410;2024-03-23T03:22:10;10.70;;;3.50;;
71572;SDS011;59408;51.032;9.410;2024-03-23T03:24:36;10.43;;;3.00;;
71572;SDS011;59408;51.032;9.410;2024-03-23T03:27:01;8.93;;;2.57;;
71572;SDS011;59408;51.032;9.410;2024-03-23T03:29:27;11.43;;;3.10;;
71572;SDS011;59408;51.032;9.410;2024-03-23T03:31:54;8.97;;;2.80;;
71572;SDS011;59408;51.032;9.410;2024-03-23T03:34:20;9.32;;;2.92;;
71572;SDS011;59408;51.032;9.410;2024-03-23T03:36:45;9.77;;;2.77;;
71572;SDS011;59408;51.032;9.410;2024-03-23T03:39:11;10.82;;;3.22;;
71572;SDS011;59408;51.032;9.410;2024-03-23T03:41:36;12.63;;;3.27;;
71572;SDS011;59408;51.032;9.410;2024-03-23T03:44:02;10.93;;;3.30;;
71572;SDS011;59408;51.032;9.410;2024-03-23T03:46:27;8.90;;;2.85;;
71572;SDS011;59408;51.032;9.410;2024-03-23T03:48:55;10.80;;;2.93;;
71572;SDS011;59408;51.032;9.410;2024-03-23T03:51:20;8.63;;;2.75;;
71572;SDS011;59408;51.032;9.410;2024-03-23T03:53:46;11.35;;;3.10;;
71572;SDS011;59408;51.032;9.410;2024-03-23T03:56:11;12.43;;;3.07;;
71572;SDS011;59408;51.032;9.410;2024-03-23T03:58:37;9.23;;;3.47;;
71572;SDS011;59408;51.032;9.410;2024-03-23T04:01:03;9.97;;;3.30;;
71572;SDS011;59408;51.032;9.410;2024-03-23T04:03:28;9.83;;;3.30;;
71572;SDS011;59408;51.032;9.410;2024-03-23T04:05:55;9.60;;;2.55;;
71572;SDS011;59408;51.032;9.410;2024-03-23T04:08:21;8.40;;;2.60;;
71572;SDS011;59408;51.032;9.410;2024-03-23T04:10:46;8.83;;;2.80;;
71572;SDS011;59408;51.032;9.410;2024-03-23T04:13:12;10.63;;;3.50;;
71572;SDS011;59408;51.032;9.410;2024-03-23T04:15:38;8.20;;;2.63;;
71572;SDS011;59408;51.032;9.410;2024-03-23T04:18:03;10.05;;;2.92;;
71572;SDS011;59408;51.032;9.410;2024-03-23T04:20:29;8.70;;;2.50;;
71572;SDS011;59408;51.032;9.410;2024-03-23T04:22:56;7.97;;;2.13;;
71572;SDS011;59408;51.032;9.410;2024-03-23T04:25:22;6.30;;;2.10;;
71572;SDS011;59408;51.032;9.410;2024-03-23T04:27:47;8.27;;;2.10;;
71572;SDS011;59408;51.032;9.410;2024-03-23T04:30:13;6.43;;;2.10;;
71572;SDS011;59408;51.032;9.410;2024-03-23T04:32:38;8.15;;;1.75;;
71572;SDS011;59408;51.032;9.410;2024-03-23T04:35:04;5.40;;;1.90;;
71572;SDS011;59408;51.032;9.410;2024-03-23T04:37:30;7.73;;;2.00;;
71572;SDS011;59408;51.032;9.410;2024-03-23T04:39:57;6.25;;;1.38;;
71572;SDS011;59408;51.032;9.410;2024-03-23T04:42:23;5.55;;;1.27;;
71572;SDS011;59408;51.032;9.410;2024-03-23T04:44:48;5.57;;;1.30;;
71572;SDS011;59408;51.032;9.410;2024-03-23T04:47:14;6.23;;;1.40;;
71572;SDS011;59408;51.032;9.410;2024-03-23T04:49:39;6.55;;;1.50;;
71572;SDS011;59408;51.032;9.410;2024-03-23T04:52:05;4.23;;;1.07;;
71572;SDS011;59408;51.032;9.410;2024-03-23T04:54:30;4.15;;;1.20;;
71572;SDS011;59408;51.032;9.410;2024-03-23T04:56:58;4.40;;;1.10;;
71572;SDS011;59408;51.032;9.410;2024-03-23T04:59:23;4.75;;;0.90;;
71572;SDS011;59408;51.032;9.410;2024-03-23T05:01:49;3.60;;;1.20;;
71572;SDS011;59408;51.032;9.410;2024-03-23T05:04:14;4.32;;;1.20;;
71572;SDS011;59408;51.032;9.410;2024-03-23T05:06:40;3.57;;;0.90;;
71572;SDS011;59408;51.032;9.410;2024-03-23T05:09:06;2.88;;;0.82;;
71572;SDS011;59408;51.032;9.410;2024-03-23T05:11:31;3.03;;;1.10;;
71572;SDS011;59408;51.032;9.410;2024-03-23T05:13:58;4.03;;;1.00;;
71572;SDS011;59408;51.032;9.410;2024-03-23T05:16:24;3.67;;;0.83;;
71572;SDS011;59408;51.032;9.410;2024-03-23T05:18:49;4.28;;;1.00;;
71572;SDS011;59408;51.032;9.410;2024-03-23T05:21:15;2.93;;;1.00;;
71572;SDS011;59408;51.032;9.410;2024-03-23T05:23:41;6.87;;;1.30;;
71572;SDS011;59408;51.032;9.410;2024-03-23T05:26:06;3.17;;;1.00;;
71572;SDS011;59408;51.032;9.410;2024-03-23T05:28:32;3.90;;;1.10;;
71572;SDS011;59408;51.032;9.410;2024-03-23T05:30:59;5.45;;;1.30;;
71572;SDS011;59408;51.032;9.410;2024-03-23T05:33:24;4.03;;;1.03;;
71572;SDS011;59408;51.032;9.410;2024-03-23T05:35:55;3.83;;;0.93;;
71572;SDS011;59408;51.032;9.410;2024-03-23T05:38:22;4.20;;;1.20;;
71572;SDS011;59408;51.032;9.410;2024-03-23T05:40:52;4.73;;;1.07;;
71572;SDS011;59408;51.032;9.410;2024-03-23T05:43:18;4.60;;;1.40;;
71572;SDS011;59408;51.032;9.410;2024-03-23T05:45:44;3.63;;;1.20;;
71572;SDS011;59408;51.032;9.410;2024-03-23T05:48:10;3.97;;;1.17;;
71572;SDS011;59408;51.032;9.410;2024-03-23T05:50:36;3.47;;;0.90;;
71572;SDS011;59408;51.032;9.410;2024-03-23T05:53:02;3.88;;;1.20;;
71572;SDS011;59408;51.032;9.410;2024-03-23T05:55:27;3.83;;;1.33;;
71572;SDS011;59408;51.032;9.410;2024-03-23T05:57:53;5.22;;;1.50;;
71572;SDS011;59408;51.032;9.410;2024-03-23T06:00:18;4.47;;;1.20;;
71572;SDS011;59408;51.032;9.410;2024-03-23T06:02:44;3.30;;;0.85;;
71572;SDS011;59408;51.032;9.410;2024-03-23T06:05:11;3.67;;;1.30;;
71572;SDS011;59408;51.032;9.410;2024-03-23T06:07:37;4.22;;;1.13;;
71572;SDS011;59408;51.032;9.410;2024-03-23T06:10:03;3.70;;;1.40;;
71572;SDS011;59408;51.032;9.410;2024-03-23T06:12:29;3.10;;;1.10;;
71572;SDS011;59408;51.032;9.410;2024-03-23T06:14:54;4.20;;;1.23;;
71572;SDS011;59408;51.032;9.410;2024-03-23T06:17:20;4.33;;;1.30;;
71572;SDS011;59408;51.032;9.410;2024-03-23T06:19:45;3.60;;;1.30;;
71572;SDS011;59408;51.032;9.410;2024-03-23T06:22:12;4.47;;;1.17;;
71572;SDS011;59408;51.032;9.410;2024-03-23T06:24:38;4.78;;;0.90;;
71572;SDS011;59408;51.032;9.410;2024-03-23T06:27:04;3.63;;;1.17;;
71572;SDS011;59408;51.032;9.410;2024-03-23T06:29:30;3.22;;;1.00;;
71572;SDS011;59408;51.032;9.410;2024-03-23T06:31:55;3.15;;;1.02;;
71572;SDS011;59408;51.032;9.410;2024-03-23T06:34:21;2.73;;;0.90;;
71572;SDS011;59408;51.032;9.410;2024-03-23T06:36:47;3.05;;;0.70;;
71572;SDS011;59408;51.032;9.410;2024-03-23T06:39:14;3.73;;;1.00;;
71572;SDS011;59408;51.032;9.410;2024-03-23T06:41:39;3.08;;;0.70;;
71572;SDS011;59408;51.032;9.410;2024-03-23T06:44:05;3.27;;;1.00;;
71572;SDS011;59408;51.032;9.410;2024-03-23T06:46:30;4.60;;;1.00;;
71572;SDS011;59408;51.032;9.410;2024-03-23T06:48:56;3.97;;;0.97;;
71572;SDS011;59408;51.032;9.410;2024-03-23T06:51:21;3.10;;;0.80;;
71572;SDS011;59408;51.032;9.410;2024-03-23T06:53:47;3.08;;;1.05;;
71572;SDS011;59408;51.032;9.410;2024-03-23T06:56:16;2.37;;;0.70;;
71572;SDS011;59408;51.032;9.410;2024-03-23T06:58:41;3.58;;;0.98;;
71572;SDS011;59408;51.032;9.410;2024-03-23T07:01:07;3.38;;;0.98;;
71572;SDS011;59408;51.032;9.410;2024-03-23T07:03:32;3.80;;;1.27;;
71572;SDS011;59408;51.032;9.410;2024-03-23T07:05:58;2.90;;;0.70;;
71572;SDS011;59408;51.032;9.410;2024-03-23T07:08:24;2.88;;;0.70;;
71572;SDS011;59408;51.032;9.410;2024-03-23T07:10:49;2.92;;;0.85;;
71572;SDS011;59408;51.032;9.410;2024-03-23T07:13:16;2.70;;;0.70;;
71572;SDS011;59408;51.032;9.410;2024-03-23T07:15:42;3.42;;;1.17;;
71572;SDS011;59408;51.032;9.410;2024-03-23T07:18:07;3.07;;;1.10;;
71572;SDS011;59408;51.032;9.410;2024-03-23T07:20:33;3.60;;;1.00;;
71572;SDS011;59408;51.032;9.410;2024-03-23T07:22:59;4.30;;;0.93;;
71572;SDS011;59408;51.032;9.410;2024-03-23T07:25:25;3.00;;;0.70;;
71572;SDS011;59408;51.032;9.410;2024-03-23T07:27:50;3.07;;;1.00;;
71572;SDS011;59408;51.032;9.410;2024-03-23T07:30:17;4.00;;;0.98;;
71572;SDS011;59408;51.032;9.410;2024-03-23T07:32:43;4.55;;;0.90;;
71572;SDS011;59408;51.032;9.410;2024-03-23T07:35:09;3.20;;;1.10;;
71572;SDS011;59408;51.032;9.410;2024-03-23T07:37:35;2.75;;;0.70;;
71572;SDS011;59408;51.032;9.410;2024-03-23T07:40:00;4.97;;;1.20;;
71572;SDS011;59408;51.032;9.410;2024-03-23T07:42:26;4.33;;;1.17;;
71572;SDS011;59408;51.032;9.410;2024-03-23T07:44:51;4.00;;;1.10;;
71572;SDS011;59408;51.032;9.410;2024-03-23T07:47:18;5.23;;;1.00;;
71572;SDS011;59408;51.032;9.410;2024-03-23T07:49:44;5.95;;;1.33;;
71572;SDS011;59408;51.032;9.410;2024-03-23T07:52:09;6.57;;;1.37;;
71572;SDS011;59408;51.032;9.410;2024-03-23T07:54:35;4.50;;;0.95;;
71572;SDS011;59408;51.032;9.410;2024-03-23T07:57:00;6.73;;;1.30;;
71572;SDS011;59408;51.032;9.410;2024-03-23T07:59:27;5.22;;;0.80;;
71572;SDS011;59408;51.032;9.410;2024-03-23T08:01:52;3.83;;;1.10;;
71572;SDS011;59408;51.032;9.410;2024-03-23T08:04:20;5.10;;;1.27;;
71572;SDS011;59408;51.032;9.410;2024-03-23T08:06:45;5.30;;;1.20;;
71572;SDS011;59408;51.032;9.410;2024-03-23T08:09:11;5.30;;;1.20;;
71572;SDS011;59408;51.032;9.410;2024-03-23T08:11:36;4.93;;;1.10;;
71572;SDS011;59408;51.032;9.410;2024-03-23T08:14:02;4.47;;;1.10;;
71572;SDS011;59408;51.032;9.410;2024-03-23T08:16:27;3.60;;;1.00;;
71572;SDS011;59408;51.032;9.410;2024-03-23T08:18:53;4.03;;;1.13;;
71572;SDS011;59408;51.032;9.410;2024-03-23T08:21:20;3.80;;;0.95;;
71572;SDS011;59408;51.032;9.410;2024-03-23T08:23:45;3.92;;;1.10;;
71572;SDS011;59408;51.032;9.410;2024-03-23T08:26:11;3.87;;;1.13;;
71572;SDS011;59408;51.032;9.410;2024-03-23T08:28:38;6.03;;;1.25;;
71572;SDS011;59408;51.032;9.410;2024-03-23T08:31:04;5.22;;;1.20;;
71572;SDS011;59408;51.032;9.410;2024-03-23T08:33:30;4.70;;;1.03;;
71572;SDS011;59408;51.032;9.410;2024-03-23T08:35:56;3.55;;;0.93;;
71572;SDS011;59408;51.032;9.410;2024-03-23T08:38:24;3.20;;;0.80;;
71572;SDS011;59408;51.032;9.410;2024-03-23T08:40:56;4.50;;;1.00;;
71572;SDS011;59408;51.032;9.410;2024-03-23T08:43:21;6.50;;;1.10;;
71572;SDS011;59408;51.032;9.410;2024-03-23T08:45:47;4.40;;;1.10;;
71572;SDS011;59408;51.032;9.410;2024-03-23T08:48:12;4.43;;;1.13;;
71572;SDS011;59408;51.032;9.410;2024-03-23T08:50:38;4.57;;;1.10;;
71572;SDS011;59408;51.032;9.410;2024-03-23T08:53:04;6.00;;;1.20;;
71572;SDS011;59408;51.032;9.410;2024-03-23T08:55:30;5.83;;;1.00;;
71572;SDS011;59408;51.032;9.410;2024-03-23T08:57:56;4.30;;;1.30;;
71572;SDS011;59408;51.032;9.410;2024-03-23T09:00:21;3.90;;;1.03;;
71572;SDS011;59408;51.032;9.410;2024-03-23T09:02:47;3.65;;;1.05;;
71572;SDS011;59408;51.032;9.410;2024-03-23T09:05:13;3.77;;;1.10;;
71572;SDS011;59408;51.032;9.410;2024-03-23T09:07:38;4.50;;;1.02;;
71572;SDS011;59408;51.032;9.410;2024-03-23T09:10:04;5.03;;;1.20;;
71572;SDS011;59408;51.032;9.410;2024-03-23T09:12:32;6.03;;;1.70;;
71572;SDS011;59408;51.032;9.410;2024-03-23T09:14:57;5.65;;;1.92;;
71572;SDS011;59408;51.032;9.410;2024-03-23T09:17:23;7.40;;;2.97;;
71572;SDS011;59408;51.032;9.410;2024-03-23T09:19:48;5.63;;;1.60;;
71572;SDS011;59408;51.032;9.410;2024-03-23T09:22:14;6.03;;;1.95;;
71572;SDS011;59408;51.032;9.410;2024-03-23T09:24:39;9.33;;;3.30;;
71572;SDS011;59408;51.032;9.410;2024-03-23T09:27:05;8.45;;;2.88;;
71572;SDS011;59408;51.032;9.410;2024-03-23T09:29:32;8.03;;;2.13;;
71572;SDS011;59408;51.032;9.410;2024-03-23T09:31:58;8.18;;;2.42;;
71572;SDS011;59408;51.032;9.410;2024-03-23T09:34:23;5.97;;;2.03;;
71572;SDS011;59408;51.032;9.410;2024-03-23T09:36:50;6.33;;;2.70;;
71572;SDS011;59408;51.032;9.410;2024-03-23T09:39:16;6.33;;;2.40;;
71572;SDS011;59408;51.032;9.410;2024-03-23T09:41:42;7.82;;;2.15;;
71572;SDS011;59408;51.032;9.410;2024-03-23T09:44:08;7.20;;;2.50;;
71572;SDS011;59408;51.032;9.410;2024-03-23T09:46:35;6.47;;;2.60;;
71572;SDS011;59408;51.032;9.410;2024-03-23T09:49:00;6.97;;;2.43;;
71572;SDS011;59408;51.032;9.410;2024-03-23T09:51:26;6.15;;;2.13;;
71572;SDS011;59408;51.032;9.410;2024-03-23T09:53:52;8.57;;;2.67;;
71572;SDS011;59408;51.032;9.410;2024-03-23T09:56:17;8.70;;;2.87;;
71572;SDS011;59408;51.032;9.410;2024-03-23T09:58:43;7.67;;;2.60;;
71572;SDS011;59408;51.032;9.410;2024-03-23T10:01:08;7.57;;;2.80;;
71572;SDS011;59408;51.032;9.410;2024-03-23T10:03:43;6.95;;;2.58;;
71572;SDS011;59408;51.032;9.410;2024-03-23T10:06:09;7.43;;;2.33;;
71572;SDS011;59408;51.032;9.410;2024-03-23T10:08:34;7.05;;;2.13;;
71572;SDS011;59408;51.032;9.410;2024-03-23T10:11:02;6.83;;;2.60;;
71572;SDS011;59408;51.032;9.410;2024-03-23T10:13:38;6.38;;;2.53;;
71572;SDS011;59408;51.032;9.410;2024-03-23T10:16:06;6.40;;;2.50;;
71572;SDS011;59408;51.032;9.410;2024-03-23T10:18:32;7.30;;;2.70;;
71572;SDS011;59408;51.032;9.410;2024-03-23T10:21:10;8.30;;;2.63;;
71572;SDS011;59408;51.032;9.410;2024-03-23T10:23:36;6.53;;;2.22;;
71572;SDS011;59408;51.032;9.410;2024-03-23T10:26:12;7.90;;;2.15;;
71572;SDS011;59408;51.032;9.410;2024-03-23T10:28:50;7.93;;;2.50;;
71572;SDS011;59408;51.032;9.410;2024-03-23T10:31:16;5.82;;;2.20;;
71572;SDS011;59408;51.032;9.410;2024-03-23T10:33:44;5.57;;;2.22;;
71572;SDS011;59408;51.032;9.410;2024-03-23T10:36:11;10.70;;;2.77;;
71572;SDS011;59408;51.032;9.410;2024-03-23T10:38:37;6.57;;;1.85;;
71572;SDS011;59408;51.032;9.410;2024-03-23T10:41:05;7.75;;;2.80;;
71572;SDS011;59408;51.032;9.410;2024-03-23T10:43:32;8.13;;;1.98;;
71572;SDS011;59408;51.032;9.410;2024-03-23T10:45:58;10.23;;;2.83;;
71572;SDS011;59408;51.032;9.410;2024-03-23T10:48:24;6.37;;;2.10;;
71572;SDS011;59408;51.032;9.410;2024-03-23T10:50:49;7.47;;;2.23;;
71572;SDS011;59408;51.032;9.410;2024-03-23T10:53:16;7.25;;;2.03;;
71572;SDS011;59408;51.032;9.410;2024-03-23T10:55:42;6.28;;;2.13;;
71572;SDS011;59408;51.032;9.410;2024-03-23T10:58:08;7.30;;;1.93;;
71572;SDS011;59408;51.032;9.410;2024-03-23T11:00:34;6.82;;;2.33;;
71572;SDS011;59408;51.032;9.410;2024-03-23T11:03:00;5.87;;;1.70;;
71572;SDS011;59408;51.032;9.410;2024-03-23T11:05:55;7.40;;;2.38;;
71572;SDS011;59408;51.032;9.410;2024-03-23T11:08:31;7.40;;;2.20;;
71572;SDS011;59408;51.032;9.410;2024-03-23T11:13:39;9.43;;;2.63;;
71572;SDS011;59408;51.032;9.410;2024-03-23T11:16:15;7.30;;;2.03;;
71572;SDS011;59408;51.032;9.410;2024-03-23T11:18:42;7.88;;;2.08;;
71572;SDS011;59408;51.032;9.410;2024-03-23T11:21:08;8.67;;;2.33;;
71572;SDS011;59408;51.032;9.410;2024-03-23T11:23:35;6.03;;;1.65;;
71572;SDS011;59408;51.032;9.410;2024-03-23T11:26:01;5.72;;;1.80;;
71572;SDS011;59408;51.032;9.410;2024-03-23T11:28:26;8.30;;;2.27;;
71572;SDS011;59408;51.032;9.410;2024-03-23T11:30:52;7.85;;;2.25;;
71572;SDS011;59408;51.032;9.410;2024-03-23T11:33:17;6.23;;;2.30;;
71572;SDS011;59408;51.032;9.410;2024-03-23T11:35:43;7.82;;;2.50;;
71572;SDS011;59408;51.032;9.410;2024-03-23T11:38:09;8.30;;;2.10;;
71572;SDS011;59408;51.032;9.410;2024-03-23T11:40:37;6.88;;;2.00;;
71572;SDS011;59408;51.032;9.410;2024-03-23T11:43:04;8.27;;;2.80;;
71572;SDS011;59408;51.032;9.410;2024-03-23T11:45:33;10.13;;;2.80;;
71572;SDS011;59408;51.032;9.410;2024-03-23T11:48:06;8.00;;;2.05;;
71572;SDS011;59408;51.032;9.410;2024-03-23T11:50:34;7.83;;;2.23;;
71572;SDS011;59408;51.032;9.410;2024-03-23T11:53:06;8.00;;;1.95;;
71572;SDS011;59408;51.032;9.410;2024-03-23T11:55:45;7.20;;;2.00;;
71572;SDS011;59408;51.032;9.410;2024-03-23T11:58:12;7.93;;;2.50;;
71572;SDS011;59408;51.032;9.410;2024-03-23T12:00:38;6.55;;;1.60;;
71572;SDS011;59408;51.032;9.410;2024-03-23T12:03:04;3.53;;;1.00;;
71572;SDS011;59408;51.032;9.410;2024-03-23T12:05:31;3.97;;;1.08;;
71572;SDS011;59408;51.032;9.410;2024-03-23T12:10:41;4.15;;;1.15;;
71572;SDS011;59408;51.032;9.410;2024-03-23T12:13:10;6.00;;;1.45;;
71572;SDS011;59408;51.032;9.410;2024-03-23T12:15:36;5.50;;;1.40;;
71572;SDS011;59408;51.032;9.410;2024-03-23T12:18:08;5.40;;;1.70;;
71572;SDS011;59408;51.032;9.410;2024-03-23T12:20:33;5.70;;;1.40;;
71572;SDS011;59408;51.032;9.410;2024-03-23T12:23:04;7.43;;;1.50;;
71572;SDS011;59408;51.032;9.410;2024-03-23T12:25:31;5.78;;;1.60;;
71572;SDS011;59408;51.032;9.410;2024-03-23T12:27:57;4.67;;;1.23;;
71572;SDS011;59408;51.032;9.410;2024-03-23T12:30:25;5.03;;;1.50;;
71572;SDS011;59408;51.032;9.410;2024-03-23T12:32:50;4.28;;;1.38;;
71572;SDS011;59408;51.032;9.410;2024-03-23T12:35:16;5.20;;;1.30;;
71572;SDS011;59408;51.032;9.410;2024-03-23T12:37:41;4.60;;;1.40;;
71572;SDS011;59408;51.032;9.410;2024-03-23T12:40:07;7.00;;;2.40;;
71572;SDS011;59408;51.032;9.410;2024-03-23T12:42:33;4.80;;;1.50;;
71572;SDS011;59408;51.032;9.410;2024-03-23T12:44:59;7.75;;;2.00;;
71572;SDS011;59408;51.032;9.410;2024-03-23T12:47:26;5.07;;;1.70;;
71572;SDS011;59408;51.032;9.410;2024-03-23T12:49:51;4.78;;;1.65;;
71572;SDS011;59408;51.032;9.410;2024-03-23T12:52:17;5.40;;;2.10;;
71572;SDS011;59408;51.032;9.410;2024-03-23T12:54:42;5.68;;;2.10;;
71572;SDS011;59408;51.032;9.410;2024-03-23T12:57:08;5.83;;;1.93;;
71572;SDS011;59408;51.032;9.410;2024-03-23T12:59:33;6.53;;;2.07;;
71572;SDS011;59408;51.032;9.410;2024-03-23T13:01:59;5.80;;;1.80;;
71572;SDS011;59408;51.032;9.410;2024-03-23T13:04:26;6.13;;;2.20;;
71572;SDS011;59408;51.032;9.410;2024-03-23T13:06:52;6.70;;;2.33;;
71572;SDS011;59408;51.032;9.410;2024-03-23T13:09:17;7.43;;;2.40;;
71572;SDS011;59408;51.032;9.410;2024-03-23T13:11:43;6.27;;;2.43;;
71572;SDS011;59408;51.032;9.410;2024-03-23T13:14:08;5.37;;;2.53;;
71572;SDS011;59408;51.032;9.410;2024-03-23T13:16:34;6.25;;;2.45;;
71572;SDS011;59408;51.032;9.410;2024-03-23T13:18:59;6.33;;;2.17;;
71572;SDS011;59408;51.032;9.410;2024-03-23T13:21:26;8.07;;;2.47;;
71572;SDS011;59408;51.032;9.410;2024-03-23T13:23:52;17.13;;;7.15;;
71572;SDS011;59408;51.032;9.410;2024-03-23T13:26:17;10.63;;;4.50;;
71572;SDS011;59408;51.032;9.410;2024-03-23T13:28:43;9.43;;;3.47;;
71572;SDS011;59408;51.032;9.410;2024-03-23T13:31:08;6.87;;;2.00;;
71572;SDS011;59408;51.032;9.410;2024-03-23T13:33:34;9.07;;;2.95;;
71572;SDS011;59408;51.032;9.410;2024-03-23T13:35:59;8.77;;;3.20;;
71572;SDS011;59408;51.032;9.410;2024-03-23T13:38:26;8.93;;;2.93;;
71572;SDS011;59408;51.032;9.410;2024-03-23T13:40:52;14.63;;;4.60;;
71572;SDS011;59408;51.032;9.410;2024-03-23T13:43:18;5.38;;;1.65;;
71572;SDS011;59408;51.032;9.410;2024-03-23T13:45:44;7.53;;;2.67;;
71572;SDS011;59408;51.032;9.410;2024-03-23T13:48:09;6.50;;;2.30;;
71572;SDS011;59408;51.032;9.410;2024-03-23T13:50:35;11.55;;;3.72;;
71572;SDS011;59408;51.032;9.410;2024-03-23T13:53:01;10.03;;;2.83;;
71572;SDS011;59408;51.032;9.410;2024-03-23T13:55:28;4.95;;;1.30;;
71572;SDS011;59408;51.032;9.410;2024-03-23T13:57:53;3.30;;;1.03;;
71572;SDS011;59408;51.032;9.410;2024-03-23T14:00:19;4.13;;;1.10;;
71572;SDS011;59408;51.032;9.410;2024-03-23T14:02:44;4.53;;;1.10;;
71572;SDS011;59408;51.032;9.410;2024-03-23T14:05:10;3.17;;;0.90;;
71572;SDS011;59408;51.032;9.410;2024-03-23T14:07:35;3.33;;;0.80;;
71572;SDS011;59408;51.032;9.410;2024-03-23T14:10:02;5.93;;;1.30;;
71572;SDS011;59408;51.032;9.410;2024-03-23T14:12:29;3.22;;;1.00;;
71572;SDS011;59408;51.032;9.410;2024-03-23T14:14:55;3.22;;;0.95;;
71572;SDS011;59408;51.032;9.410;2024-03-23T14:17:20;3.43;;;0.93;;
71572;SDS011;59408;51.032;9.410;2024-03-23T14:19:46;6.55;;;1.45;;
71572;SDS011;59408;51.032;9.410;2024-03-23T14:22:11;3.73;;;1.10;;
71572;SDS011;59408;51.032;9.410;2024-03-23T14:24:37;5.53;;;1.23;;
71572;SDS011;59408;51.032;9.410;2024-03-23T14:27:02;4.50;;;1.20;;
71572;SDS011;59408;51.032;9.410;2024-03-23T14:29:30;7.93;;;2.47;;
71572;SDS011;59408;51.032;9.410;2024-03-23T14:31:55;5.88;;;1.50;;
71572;SDS011;59408;51.032;9.410;2024-03-23T14:34:21;4.47;;;1.30;;
71572;SDS011;59408;51.032;9.410;2024-03-23T14:36:46;5.22;;;1.50;;
71572;SDS011;59408;51.032;9.410;2024-03-23T14:39:12;3.70;;;1.10;;
71572;SDS011;59408;51.032;9.410;2024-03-23T14:41:37;6.03;;;1.87;;
71572;SDS011;59408;51.032;9.410;2024-03-23T14:44:03;5.30;;;1.40;;
71572;SDS011;59408;51.032;9.410;2024-03-23T14:46:30;6.30;;;1.57;;
71572;SDS011;59408;51.032;9.410;2024-03-23T14:48:56;7.77;;;2.30;;
71572;SDS011;59408;51.032;9.410;2024-03-23T14:51:23;4.38;;;0.85;;
71572;SDS011;59408;51.032;9.410;2024-03-23T14:53:48;5.83;;;1.20;;
71572;SDS011;59408;51.032;9.410;2024-03-23T14:56:14;4.38;;;1.10;;
71572;SDS011;59408;51.032;9.410;2024-03-23T14:58:39;4.50;;;1.20;;
71572;SDS011;59408;51.032;9.410;2024-03-23T15:01:05;4.18;;;1.33;;
71572;SDS011;59408;51.032;9.410;2024-03-23T15:03:33;5.50;;;1.00;;
71572;SDS011;59408;51.032;9.410;2024-03-23T15:05:58;4.40;;;1.40;;
71572;SDS011;59408;51.032;9.410;2024-03-23T15:08:24;5.25;;;1.05;;
71572;SDS011;59408;51.032;9.410;2024-03-23T15:10:50;4.33;;;1.20;;
71572;SDS011;59408;51.032;9.410;2024-03-23T15:13:15;5.10;;;1.40;;
71572;SDS011;59408;51.032;9.410;2024-03-23T15:15:41;4.00;;;1.20;;
71572;SDS011;59408;51.032;9.410;2024-03-23T15:18:07;5.25;;;1.00;;
71572;SDS011;59408;51.032;9.410;2024-03-23T15:20:34;3.83;;;0.90;;
71572;SDS011;59408;51.032;9.410;2024-03-23T15:22:59;3.85;;;1.05;;
71572;SDS011;59408;51.032;9.410;2024-03-23T15:25:25;3.92;;;1.20;;
71572;SDS011;59408;51.032;9.410;2024-03-23T15:27:50;4.87;;;1.30;;
71572;SDS011;59408;51.032;9.410;2024-03-23T15:30:16;4.37;;;1.40;;
71572;SDS011;59408;51.032;9.410;2024-03-23T15:32:41;4.32;;;1.42;;
71572;SDS011;59408;51.032;9.410;2024-03-23T15:35:07;6.17;;;1.50;;
71572;SDS011;59408;51.032;9.410;2024-03-23T15:37:34;7.20;;;2.30;;
71572;SDS011;59408;51.032;9.410;2024-03-23T15:39:59;8.20;;;2.53;;